createdAt,value
2023-03-01T00:02:59.978Z,100.00
2023-03-01T00:06:03.519Z,100.00
2023-03-01T00:09:06.184Z,100.00
2023-03-01T00:12:08.689Z,100.00
2023-03-01T00:15:11.130Z,100.00
2023-03-01T00:18:13.602Z,100.00
2023-03-01T00:21:16.980Z,100.00
2023-03-01T00:24:19.441Z,100.00
2023-03-01T00:27:21.874Z,100.00
2023-03-01T00:30:25.235Z,100.00
2023-03-01T00:33:28.949Z,100.00
2023-03-01T00:36:34.858Z,100.00
2023-03-01T00:39:37.489Z,100.00
2023-03-01T00:42:39.979Z,100.00
2023-03-01T00:45:42.452Z,100.00
2023-03-01T00:48:45.710Z,100.00
2023-03-01T00:51:48.184Z,100.00
2023-03-01T00:54:53.418Z,100.00
2023-03-01T00:57:55.950Z,100.00
2023-03-01T01:00:58.655Z,100.00
2023-03-01T01:04:04.481Z,100.00
2023-03-01T01:07:07.091Z,100.00
2023-03-01T01:10:13.989Z,100.00
2023-03-01T01:13:17.615Z,100.00
2023-03-01T01:16:21.864Z,100.00
2023-03-01T01:19:26.153Z,100.00
2023-03-01T01:22:28.707Z,100.00
2023-03-01T01:25:31.131Z,100.00
2023-03-01T01:28:34.109Z,100.00
2023-03-01T01:31:38.024Z,100.00
2023-03-01T01:34:40.559Z,100.00
2023-03-01T01:37:43.071Z,100.00
2023-03-01T01:40:47.075Z,100.00
2023-03-01T01:44:09.484Z,100.00
2023-03-01T01:47:16.234Z,100.00
2023-03-01T01:50:20.174Z,100.00
2023-03-01T01:53:23.172Z,100.00
2023-03-01T01:56:27.715Z,100.00
2023-03-01T01:59:31.927Z,100.00
2023-03-01T02:02:34.984Z,100.00
2023-03-01T02:05:51.034Z,100.00
2023-03-01T02:09:01.245Z,100.00
2023-03-01T02:12:05.300Z,100.00
2023-03-01T02:15:08.097Z,100.00
2023-03-01T02:18:11.847Z,100.00
2023-03-01T02:21:29.469Z,100.00
2023-03-01T02:24:41.020Z,100.00
2023-03-01T02:28:01.277Z,100.00
2023-03-01T02:31:26.811Z,100.00
2023-03-01T02:34:30.259Z,100.00
2023-03-01T02:37:32.789Z,100.00
2023-03-01T02:40:37.328Z,100.00
2023-03-01T02:43:40.035Z,100.00
2023-03-01T02:46:44.554Z,100.00
2023-03-01T02:49:47.411Z,100.00
2023-03-01T02:53:08.982Z,100.00
2023-03-01T02:56:13.961Z,100.00
2023-03-01T02:59:19.356Z,100.00
2023-03-01T03:02:36.997Z,100.00
2023-03-01T03:05:44.251Z,100.00
2023-03-01T03:08:46.803Z,100.00
2023-03-01T03:11:49.298Z,100.00
2023-03-01T03:14:52.066Z,100.00
2023-03-01T03:17:56.130Z,100.00
2023-03-01T03:20:58.777Z,100.00
2023-03-01T03:24:01.457Z,100.00
2023-03-01T03:27:03.901Z,100.00
2023-03-01T03:30:13.319Z,100.00
2023-03-01T03:33:16.322Z,100.00
2023-03-01T03:36:21.005Z,100.00
2023-03-01T03:39:24.758Z,100.00
2023-03-01T03:42:27.344Z,100.00
2023-03-01T03:45:29.844Z,100.00
2023-03-01T03:48:36.715Z,100.00
2023-03-01T03:51:39.248Z,100.00
2023-03-01T03:54:41.779Z,100.00
2023-03-01T03:57:44.358Z,100.00
2023-03-01T04:00:51.170Z,100.00
2023-03-01T04:03:55.460Z,100.00
2023-03-01T04:06:57.958Z,100.00
2023-03-01T04:10:00.784Z,100.00
2023-03-01T04:13:04.261Z,100.00
2023-03-01T04:16:06.985Z,100.00
2023-03-01T04:19:10.575Z,100.00
2023-03-01T04:22:18.320Z,100.00
2023-03-01T04:25:21.018Z,100.00
2023-03-01T04:28:26.753Z,100.00
2023-03-01T04:31:29.427Z,100.00
2023-03-01T04:34:31.878Z,100.00
2023-03-01T04:37:35.851Z,100.00
2023-03-01T04:40:44.217Z,100.00
2023-03-01T04:43:47.065Z,100.00
2023-03-01T04:46:51.089Z,100.00
2023-03-01T04:49:53.592Z,100.00
2023-03-01T04:52:59.442Z,100.00
2023-03-01T04:56:01.934Z,100.00
2023-03-01T04:59:06.733Z,100.00
2023-03-01T05:02:09.656Z,100.00
2023-03-01T05:05:12.132Z,100.00
2023-03-01T05:08:18.485Z,100.00
2023-03-01T05:11:23.174Z,100.00
2023-03-01T05:14:25.642Z,100.00
2023-03-01T05:17:28.127Z,100.00
2023-03-01T05:20:31.891Z,100.00
2023-03-01T05:23:34.960Z,100.00
2023-03-01T05:26:41.435Z,100.00
2023-03-01T05:29:44.343Z,100.00
2023-03-01T05:32:49.341Z,100.00
2023-03-01T05:35:52.959Z,100.00
2023-03-01T05:38:56.656Z,100.00
2023-03-01T05:42:00.624Z,100.00
2023-03-01T05:45:03.113Z,100.00
2023-03-01T05:48:06.562Z,100.00
2023-03-01T05:51:09.290Z,100.00
2023-03-01T05:54:12.140Z,100.00
2023-03-01T05:57:14.552Z,100.00
2023-03-01T06:00:24.885Z,100.00
2023-03-01T06:03:27.460Z,100.00
2023-03-01T06:06:31.152Z,100.00
2023-03-01T06:09:33.846Z,100.00
2023-03-01T06:12:37.842Z,100.00
2023-03-01T06:15:40.305Z,100.00
2023-03-01T06:18:42.787Z,100.00
2023-03-01T06:21:45.240Z,100.00
2023-03-01T06:24:47.673Z,100.00
2023-03-01T06:27:50.482Z,100.00
2023-03-01T06:30:53.799Z,100.00
2023-03-01T06:33:56.619Z,100.00
2023-03-01T06:36:59.087Z,100.00
2023-03-01T06:40:05.754Z,100.00
2023-03-01T06:43:08.766Z,100.00
2023-03-01T06:46:11.326Z,100.00
2023-03-01T06:49:14.114Z,100.00
2023-03-01T06:52:16.582Z,100.00
2023-03-01T06:55:18.991Z,100.00
2023-03-01T06:58:22.564Z,100.00
2023-03-01T07:01:26.698Z,100.00
2023-03-01T07:04:32.303Z,100.00
2023-03-01T07:07:41.508Z,100.00
2023-03-01T07:10:52.760Z,100.00
2023-03-01T07:13:57.923Z,100.00
2023-03-01T07:17:02.392Z,100.00
2023-03-01T07:20:07.025Z,100.00
2023-03-01T07:23:11.054Z,100.00
2023-03-01T07:26:15.187Z,100.00
2023-03-01T07:29:19.651Z,100.00
2023-03-01T07:32:23.752Z,100.00
2023-03-01T07:35:28.846Z,100.00
2023-03-01T07:38:33.235Z,100.00
2023-03-01T07:41:37.062Z,100.00
2023-03-01T07:44:41.146Z,100.00
2023-03-01T07:47:45.125Z,100.00
2023-03-01T07:50:55.576Z,100.00
2023-03-01T07:54:01.379Z,100.00
2023-03-01T07:57:05.838Z,100.00
2023-03-01T08:00:13.660Z,100.00
2023-03-01T08:03:23.860Z,100.00
2023-03-01T08:06:31.104Z,100.00
2023-03-01T08:09:43.110Z,100.00
2023-03-01T08:13:00.048Z,100.00
2023-03-01T08:16:08.893Z,100.00
2023-03-01T08:19:16.271Z,100.00
2023-03-01T08:22:23.592Z,100.00
2023-03-01T08:25:27.943Z,100.00
2023-03-01T08:28:32.322Z,100.00
2023-03-01T08:31:39.429Z,100.00
2023-03-01T08:34:44.107Z,100.00
2023-03-01T08:37:52.152Z,100.00
2023-03-01T08:41:01.664Z,100.00
2023-03-01T08:44:06.395Z,100.00
2023-03-01T08:47:10.785Z,100.00
2023-03-01T08:50:19.781Z,100.00
2023-03-01T08:53:26.001Z,100.00
2023-03-01T08:56:32.855Z,100.00
2023-03-01T08:59:41.552Z,100.00
2023-03-01T09:02:58.538Z,100.00
2023-03-01T09:06:08.172Z,100.00
2023-03-01T09:09:22.752Z,100.00
2023-03-01T09:12:27.435Z,100.00
2023-03-01T09:15:40.113Z,100.00
2023-03-01T09:18:45.442Z,100.00
2023-03-01T09:21:54.204Z,100.00
2023-03-01T09:25:03.588Z,100.00
2023-03-01T09:28:24.235Z,100.00
2023-03-01T09:31:37.053Z,100.00
2023-03-01T09:35:02.234Z,100.00
2023-03-01T09:38:06.780Z,100.00
2023-03-01T09:41:35.388Z,100.00
2023-03-01T09:44:50.688Z,100.00
2023-03-01T09:47:55.940Z,100.00
2023-03-01T09:51:04.095Z,100.00
2023-03-01T09:54:10.009Z,100.00
2023-03-01T09:57:28.190Z,100.00
2023-03-01T10:00:48.503Z,100.00
2023-03-01T10:04:29.737Z,100.00
2023-03-01T10:11:40.891Z,51.64
2023-03-01T10:14:53.896Z,50.94
2023-03-01T10:18:18.653Z,51.04
2023-03-01T10:21:24.288Z,50.39
2023-03-01T10:24:29.769Z,50.53
2023-03-01T10:27:40.291Z,50.44
2023-03-01T10:30:46.890Z,51.37
2023-03-01T10:33:56.252Z,51.32
2023-03-01T10:37:11.140Z,50.23
2023-03-01T10:40:15.689Z,50.72
2023-03-01T10:43:20.041Z,49.54
2023-03-01T10:46:35.403Z,50.10
2023-03-01T10:49:39.540Z,50.70
2023-03-01T10:52:44.012Z,51.30
2023-03-01T10:55:48.457Z,50.40
2023-03-01T10:59:07.023Z,49.84
2023-03-01T11:02:23.395Z,49.83
2023-03-01T11:05:31.997Z,50.13
2023-03-01T11:08:45.310Z,48.52
2023-03-01T11:11:57.272Z,48.54
2023-03-01T11:15:01.118Z,47.58
2023-03-01T11:18:13.869Z,47.09
2023-03-01T11:21:18.990Z,46.19
2023-03-01T11:24:36.648Z,46.29
2023-03-01T11:27:43.772Z,47.84
2023-03-01T11:31:22.366Z,45.81
2023-03-01T11:34:41.886Z,45.71
2023-03-01T11:37:50.981Z,44.60
2023-03-01T11:41:13.453Z,44.97
2023-03-01T11:44:22.205Z,45.72
2023-03-01T11:47:52.322Z,45.96
2023-03-01T11:50:59.990Z,46.99
2023-03-01T11:54:11.978Z,44.45
2023-03-01T11:57:43.343Z,44.32
2023-03-01T12:00:50.901Z,45.10
2023-03-01T12:04:02.746Z,44.36
2023-03-01T12:07:44.591Z,43.86
2023-03-01T12:11:22.643Z,43.81
2023-03-01T12:14:38.682Z,42.71
2023-03-01T12:18:01.022Z,41.49
2023-03-01T12:21:21.786Z,42.00
2023-03-01T12:24:47.392Z,42.27
2023-03-01T12:28:02.230Z,42.78
2023-03-01T12:31:32.156Z,42.12
2023-03-01T12:35:13.631Z,41.44
2023-03-01T12:38:46.842Z,40.71
2023-03-01T12:42:01.457Z,41.75
2023-03-01T12:45:13.253Z,41.10
2023-03-01T12:48:21.688Z,38.08
2023-03-01T12:51:29.166Z,37.33
2023-03-01T12:54:33.905Z,38.29
2023-03-01T12:57:43.999Z,37.17
2023-03-01T13:01:15.438Z,35.32
2023-03-01T13:04:45.552Z,31.73
2023-03-01T13:08:03.664Z,32.09
2023-03-01T13:11:17.800Z,30.27
2023-03-01T13:14:26.656Z,31.34
2023-03-01T13:17:34.676Z,32.03
2023-03-01T13:20:43.885Z,32.20
2023-03-01T13:23:49.103Z,33.69
2023-03-01T13:27:16.792Z,34.66
2023-03-01T13:30:35.589Z,35.17
2023-03-01T13:33:42.747Z,34.71
2023-03-01T13:36:49.667Z,33.15
2023-03-01T13:39:52.655Z,31.69
2023-03-01T13:43:06.018Z,30.32
2023-03-01T13:46:21.544Z,30.51
2023-03-01T13:49:31.486Z,30.88
2023-03-01T13:52:40.365Z,29.33
2023-03-01T13:55:52.116Z,29.15
2023-03-01T13:59:03.065Z,29.28
2023-03-01T14:02:13.170Z,28.87
2023-03-01T14:05:15.578Z,29.03
2023-03-01T14:08:25.066Z,28.18
2023-03-01T14:11:43.251Z,28.21
2023-03-01T14:14:56.904Z,30.76
2023-03-01T14:18:20.412Z,29.00
2023-03-01T14:21:23.710Z,28.93
2023-03-01T14:24:28.355Z,27.67
2023-03-01T14:27:37.287Z,27.40
2023-03-01T14:30:47.495Z,29.33
2023-03-01T14:33:56.496Z,29.74
2023-03-01T14:37:11.481Z,29.58
2023-03-01T14:40:23.265Z,27.18
2023-03-01T14:43:30.793Z,28.75
2023-03-01T14:46:38.476Z,28.25
2023-03-01T14:49:41.267Z,29.28
2023-03-01T14:52:47.945Z,28.33
2023-03-01T14:55:54.059Z,29.74
2023-03-01T14:59:00.360Z,28.35
2023-03-01T15:02:03.131Z,27.90
2023-03-01T15:05:09.052Z,27.06
2023-03-01T15:08:20.648Z,26.67
2023-03-01T15:11:26.591Z,26.61
2023-03-01T15:14:41.230Z,27.56
2023-03-01T15:17:43.692Z,27.52
2023-03-01T15:20:48.209Z,28.14
2023-03-01T15:23:55.914Z,27.94
2023-03-01T15:27:02.979Z,27.75
2023-03-01T15:30:06.827Z,27.64
2023-03-01T15:33:28.187Z,28.65
2023-03-01T15:36:49.381Z,30.23
2023-03-01T15:39:56.275Z,32.58
2023-03-01T15:43:04.114Z,35.62
2023-03-01T15:46:06.565Z,36.63
2023-03-01T15:49:54.421Z,36.57
2023-03-01T15:52:58.872Z,37.34
2023-03-01T15:56:01.327Z,38.01
2023-03-01T15:59:04.580Z,38.92
2023-03-01T16:02:16.642Z,38.60
2023-03-01T16:05:30.147Z,39.46
2023-03-01T16:08:32.600Z,39.31
2023-03-01T16:11:37.755Z,40.36
2023-03-01T16:14:40.228Z,40.66
2023-03-01T16:17:42.862Z,41.01
2023-03-01T16:20:49.319Z,41.06
2023-03-01T16:23:52.897Z,43.17
2023-03-01T16:26:55.370Z,43.08
2023-03-01T16:29:57.905Z,43.48
2023-03-01T16:33:00.717Z,44.53
2023-03-01T16:36:11.849Z,44.59
2023-03-01T16:39:14.807Z,44.18
2023-03-01T16:42:18.805Z,44.40
2023-03-01T16:45:25.473Z,44.80
2023-03-01T16:48:28.086Z,45.94
2023-03-01T16:51:32.018Z,46.34
2023-03-01T16:54:34.758Z,46.31
2023-03-01T16:57:38.365Z,46.79
2023-03-01T17:00:44.469Z,47.02
2023-03-01T17:03:47.924Z,47.56
2023-03-01T17:06:50.836Z,48.27
2023-03-01T17:09:53.523Z,48.10
2023-03-01T17:12:55.969Z,48.37
2023-03-01T17:15:58.642Z,48.63
2023-03-01T17:19:01.637Z,49.02
2023-03-01T17:22:04.102Z,49.82
2023-03-01T17:25:10.171Z,50.10
2023-03-01T17:28:14.726Z,50.77
2023-03-01T17:31:25.080Z,50.85
2023-03-01T17:34:27.808Z,50.91
2023-03-01T17:37:30.226Z,50.97
2023-03-01T17:40:33.779Z,51.71
2023-03-01T17:43:36.289Z,51.02
2023-03-01T17:46:38.975Z,50.85
2023-03-01T17:49:41.665Z,49.63
2023-03-01T17:52:44.258Z,48.68
2023-03-01T17:55:49.450Z,48.50
2023-03-01T17:58:52.303Z,48.50
2023-03-01T18:01:54.995Z,51.12
2023-03-01T18:04:59.132Z,51.93
2023-03-01T18:08:01.845Z,52.52
2023-03-01T18:11:04.989Z,50.89
2023-03-01T18:14:08.399Z,52.62
2023-03-01T18:17:13.542Z,54.12
2023-03-01T18:20:17.986Z,52.29
2023-03-01T18:23:21.227Z,47.93
2023-03-01T18:26:25.097Z,47.87
2023-03-01T18:29:28.485Z,47.10
2023-03-01T18:32:31.304Z,45.79
2023-03-01T18:35:37.263Z,44.39
2023-03-01T18:38:40.001Z,45.66
2023-03-01T18:41:42.566Z,45.80
2023-03-01T18:44:45.199Z,49.96
2023-03-01T18:47:49.907Z,44.96
2023-03-01T18:50:52.752Z,45.53
2023-03-01T18:53:56.360Z,42.80
2023-03-01T18:56:59.164Z,44.76
2023-03-01T19:00:02.478Z,44.33
2023-03-01T19:03:05.977Z,44.31
2023-03-01T19:06:09.172Z,43.71
2023-03-01T19:09:12.618Z,43.91
2023-03-01T19:12:15.331Z,43.47
2023-03-01T19:15:18.098Z,43.52
2023-03-01T19:18:20.788Z,43.29
2023-03-01T19:21:25.279Z,42.42
2023-03-01T19:24:28.205Z,42.04
2023-03-01T19:27:30.888Z,42.63
2023-03-01T19:30:34.255Z,42.79
2023-03-01T19:33:39.966Z,43.33
2023-03-01T19:36:44.006Z,44.01
2023-03-01T19:39:48.110Z,44.92
2023-03-01T19:42:51.057Z,45.60
2023-03-01T19:45:54.971Z,45.65
2023-03-01T19:49:00.438Z,45.41
2023-03-01T19:52:03.713Z,45.72
2023-03-01T19:55:09.808Z,45.32
2023-03-01T19:58:12.982Z,45.72
2023-03-01T20:01:20.951Z,45.24
2023-03-01T20:04:23.769Z,44.86
2023-03-01T20:07:26.453Z,44.95
2023-03-01T20:10:31.401Z,45.55
2023-03-01T20:13:34.446Z,44.94
2023-03-01T20:16:37.284Z,44.12
2023-03-01T20:19:39.961Z,47.25
2023-03-01T20:22:42.994Z,48.95
2023-03-01T20:25:48.574Z,46.45
2023-03-01T20:28:53.839Z,45.83
2023-03-01T20:31:57.234Z,45.80
2023-03-01T20:35:00.411Z,46.12
2023-03-01T20:38:03.765Z,46.42
2023-03-01T20:41:12.434Z,46.73
2023-03-01T20:44:15.401Z,47.00
2023-03-01T20:47:20.418Z,46.91
2023-03-01T20:50:25.516Z,47.36
2023-03-01T20:53:29.039Z,46.89
2023-03-01T20:56:32.038Z,48.27
2023-03-01T20:59:37.953Z,49.26
2023-03-01T21:02:41.166Z,50.51
2023-03-01T21:05:43.848Z,50.34
2023-03-01T21:08:46.694Z,50.35
2023-03-01T21:11:50.361Z,50.53
2023-03-01T21:14:53.243Z,50.82
2023-03-01T21:17:55.707Z,51.08
2023-03-01T21:21:00.873Z,51.31
2023-03-01T21:24:05.188Z,51.48
2023-03-01T21:27:07.966Z,50.50
2023-03-01T21:30:11.577Z,50.88
2023-03-01T21:33:15.933Z,51.23
2023-03-01T21:36:19.340Z,50.58
2023-03-01T21:39:22.164Z,50.93
2023-03-01T21:42:24.764Z,51.02
2023-03-01T21:45:27.437Z,51.44
2023-03-01T21:48:30.400Z,52.01
2023-03-01T21:51:33.130Z,52.02
2023-03-01T21:54:35.578Z,51.84
2023-03-01T21:57:43.693Z,51.10
2023-03-01T22:00:47.834Z,51.41
2023-03-01T22:03:50.709Z,51.56
2023-03-01T22:06:54.350Z,51.61
2023-03-01T22:09:56.978Z,51.58
2023-03-01T22:13:00.278Z,51.40
2023-03-01T22:16:02.943Z,51.23
2023-03-01T22:19:06.652Z,51.00
2023-03-01T22:22:09.335Z,51.74
2023-03-01T22:25:12.166Z,51.56
2023-03-01T22:28:14.548Z,51.30
2023-03-01T22:31:17.066Z,51.99
2023-03-01T22:34:20.189Z,52.19
2023-03-01T22:37:22.590Z,52.65
2023-03-01T22:40:25.745Z,52.75
2023-03-01T22:43:29.253Z,53.19
2023-03-01T22:46:32.221Z,52.31
2023-03-01T22:49:34.937Z,52.27
2023-03-01T22:52:39.748Z,52.21
2023-03-01T22:55:42.368Z,52.00
2023-03-01T22:58:44.931Z,51.39
2023-03-01T23:01:48.449Z,51.56
2023-03-01T23:04:51.587Z,51.31
2023-03-01T23:07:54.365Z,50.60
2023-03-01T23:10:56.907Z,50.91
2023-03-01T23:14:00.135Z,51.18
2023-03-01T23:17:03.223Z,51.14
2023-03-01T23:20:15.428Z,51.17
2023-03-01T23:23:19.255Z,50.50
2023-03-01T23:26:22.449Z,50.41
2023-03-01T23:29:25.640Z,50.47
2023-03-01T23:32:28.085Z,50.10
2023-03-01T23:35:30.568Z,49.96
2023-03-01T23:38:33.146Z,49.92
2023-03-01T23:41:35.738Z,49.56
2023-03-01T23:44:40.838Z,51.29
2023-03-01T23:47:44.392Z,51.30
2023-03-01T23:50:50.260Z,53.88
2023-03-01T23:53:56.077Z,55.27
2023-03-01T23:56:58.687Z,55.70
